Riviere-Au-Tonnerre, Canada
Current Conditions -  °F | °C
As of 12:00 PM on Wednesday 26 Nov 2014 (Local Time) from CYGV Reporting Station
Clear Clear  
Wind Chill: 20°   Ceiling: Unl
Heat Index: 28°   Visibility: 9mi
Dew Point: 18°   Wind: 9mph
Humidity: 64%   Direction: 290°WNW
Pressure: 30.06"   Gusts: NA
Location:  50.27°N, 64.77°W
Report Text: CYGV 261700Z AUTO 29008KT 9SM CLR M02/M08 A3006 RMK PRESRR SLP180
Loading
Personal Weather Stations






























Interactive Weather Map New forecast layout! Learn more

10-Day Weather Forecast

Advertisements
Track Severe Weather on mobile